sensor_id;sensor_type;location;lat;lon;timestamp;P1;durP1;ratioP1;P2;durP2;ratioP2
68812;SDS011;55808;48.112;11.552;2022-11-13T00:01:06;33.05;;;29.58;;
68812;SDS011;55808;48.112;11.552;2022-11-13T00:03:40;66.55;;;34.38;;
68812;SDS011;55808;48.112;11.552;2022-11-13T00:06:06;36.40;;;30.83;;
68812;SDS011;55808;48.112;11.552;2022-11-13T00:08:32;34.93;;;30.50;;
68812;SDS011;55808;48.112;11.552;2022-11-13T00:11:03;38.60;;;31.30;;
68812;SDS011;55808;48.112;11.552;2022-11-13T00:13:31;64.70;;;36.28;;
68812;SDS011;55808;48.112;11.552;2022-11-13T00:15:58;41.08;;;32.78;;
68812;SDS011;55808;48.112;11.552;2022-11-13T00:18:26;33.63;;;29.20;;
68812;SDS011;55808;48.112;11.552;2022-11-13T00:20:53;34.08;;;30.60;;
68812;SDS011;55808;48.112;11.552;2022-11-13T00:23:28;40.75;;;30.45;;
68812;SDS011;55808;48.112;11.552;2022-11-13T00:26:02;36.47;;;30.90;;
68812;SDS011;55808;48.112;11.552;2022-11-13T00:28:38;35.78;;;32.03;;
68812;SDS011;55808;48.112;11.552;2022-11-13T00:31:05;34.27;;;27.77;;
68812;SDS011;55808;48.112;11.552;2022-11-13T00:33:32;32.40;;;29.05;;
68812;SDS011;55808;48.112;11.552;2022-11-13T00:36:02;40.63;;;30.98;;
68812;SDS011;55808;48.112;11.552;2022-11-13T00:38:29;39.40;;;29.55;;
68812;SDS011;55808;48.112;11.552;2022-11-13T00:40:56;33.85;;;30.35;;
68812;SDS011;55808;48.112;11.552;2022-11-13T00:43:22;41.03;;;30.35;;
68812;SDS011;55808;48.112;11.552;2022-11-13T00:45:48;33.28;;;29.75;;
68812;SDS011;55808;48.112;11.552;2022-11-13T00:48:14;37.13;;;29.93;;
68812;SDS011;55808;48.112;11.552;2022-11-13T00:50:39;39.43;;;30.20;;
68812;SDS011;55808;48.112;11.552;2022-11-13T00:53:05;30.77;;;27.63;;
68812;SDS011;55808;48.112;11.552;2022-11-13T00:55:31;36.77;;;30.63;;
68812;SDS011;55808;48.112;11.552;2022-11-13T00:57:56;31.47;;;28.20;;
68812;SDS011;55808;48.112;11.552;2022-11-13T01:00:22;63.15;;;33.05;;
68812;SDS011;55808;48.112;11.552;2022-11-13T01:02:48;38.30;;;29.60;;
68812;SDS011;55808;48.112;11.552;2022-11-13T01:05:13;48.30;;;29.73;;
68812;SDS011;55808;48.112;11.552;2022-11-13T01:07:39;49.17;;;27.93;;
68812;SDS011;55808;48.112;11.552;2022-11-13T01:10:05;69.03;;;32.93;;
68812;SDS011;55808;48.112;11.552;2022-11-13T01:12:32;41.00;;;28.95;;
68812;SDS011;55808;48.112;11.552;2022-11-13T01:15:00;33.63;;;26.57;;
68812;SDS011;55808;48.112;11.552;2022-11-13T01:17:26;42.42;;;30.35;;
68812;SDS011;55808;48.112;11.552;2022-11-13T01:19:51;42.70;;;28.37;;
68812;SDS011;55808;48.112;11.552;2022-11-13T01:22:17;34.83;;;28.20;;
68812;SDS011;55808;48.112;11.552;2022-11-13T01:24:43;41.27;;;27.87;;
68812;SDS011;55808;48.112;11.552;2022-11-13T01:27:08;45.23;;;30.43;;
68812;SDS011;55808;48.112;11.552;2022-11-13T01:29:36;40.83;;;29.37;;
68812;SDS011;55808;48.112;11.552;2022-11-13T01:32:01;34.92;;;29.40;;
68812;SDS011;55808;48.112;11.552;2022-11-13T01:34:27;35.03;;;29.40;;
68812;SDS011;55808;48.112;11.552;2022-11-13T01:36:54;130.77;;;40.53;;
68812;SDS011;55808;48.112;11.552;2022-11-13T01:39:21;37.50;;;31.52;;
68812;SDS011;55808;48.112;11.552;2022-11-13T01:41:47;47.20;;;30.37;;
68812;SDS011;55808;48.112;11.552;2022-11-13T01:44:13;50.27;;;30.93;;
68812;SDS011;55808;48.112;11.552;2022-11-13T01:46:47;38.88;;;29.35;;
68812;SDS011;55808;48.112;11.552;2022-11-13T01:49:31;35.03;;;28.08;;
68812;SDS011;55808;48.112;11.552;2022-11-13T01:52:05;44.97;;;28.25;;
68812;SDS011;55808;48.112;11.552;2022-11-13T01:54:34;36.35;;;29.17;;
68812;SDS011;55808;48.112;11.552;2022-11-13T01:57:02;39.67;;;27.77;;
68812;SDS011;55808;48.112;11.552;2022-11-13T01:59:30;29.55;;;25.92;;
68812;SDS011;55808;48.112;11.552;2022-11-13T02:02:00;56.00;;;29.15;;
68812;SDS011;55808;48.112;11.552;2022-11-13T02:04:25;46.05;;;29.33;;
68812;SDS011;55808;48.112;11.552;2022-11-13T02:06:54;42.83;;;27.40;;
68812;SDS011;55808;48.112;11.552;2022-11-13T02:09:26;41.58;;;27.13;;
68812;SDS011;55808;48.112;11.552;2022-11-13T02:11:57;44.17;;;26.98;;
68812;SDS011;55808;48.112;11.552;2022-11-13T02:14:24;29.60;;;26.60;;
68812;SDS011;55808;48.112;11.552;2022-11-13T02:16:52;50.95;;;28.40;;
68812;SDS011;55808;48.112;11.552;2022-11-13T02:19:37;27.77;;;24.88;;
68812;SDS011;55808;48.112;11.552;2022-11-13T02:24:57;40.40;;;24.40;;
68812;SDS011;55808;48.112;11.552;2022-11-13T02:27:27;38.60;;;26.33;;
68812;SDS011;55808;48.112;11.552;2022-11-13T02:32:45;34.50;;;22.90;;
68812;SDS011;55808;48.112;11.552;2022-11-13T02:35:14;40.78;;;26.08;;
68812;SDS011;55808;48.112;11.552;2022-11-13T02:37:45;43.67;;;25.98;;
68812;SDS011;55808;48.112;11.552;2022-11-13T02:40:11;34.53;;;26.40;;
68812;SDS011;55808;48.112;11.552;2022-11-13T02:42:37;51.25;;;29.13;;
68812;SDS011;55808;48.112;11.552;2022-11-13T02:45:03;37.90;;;27.10;;
68812;SDS011;55808;48.112;11.552;2022-11-13T02:47:30;29.90;;;26.85;;
68812;SDS011;55808;48.112;11.552;2022-11-13T02:49:56;29.35;;;25.45;;
68812;SDS011;55808;48.112;11.552;2022-11-13T02:52:22;30.27;;;26.97;;
68812;SDS011;55808;48.112;11.552;2022-11-13T02:54:48;33.60;;;25.90;;
68812;SDS011;55808;48.112;11.552;2022-11-13T02:57:13;36.03;;;26.70;;
68812;SDS011;55808;48.112;11.552;2022-11-13T02:59:39;41.63;;;28.63;;
68812;SDS011;55808;48.112;11.552;2022-11-13T03:02:05;31.60;;;26.80;;
68812;SDS011;55808;48.112;11.552;2022-11-13T03:04:30;36.03;;;28.33;;
68812;SDS011;55808;48.112;11.552;2022-11-13T03:06:56;32.87;;;28.00;;
68812;SDS011;55808;48.112;11.552;2022-11-13T03:09:22;31.03;;;26.63;;
68812;SDS011;55808;48.112;11.552;2022-11-13T03:11:47;39.67;;;28.17;;
68812;SDS011;55808;48.112;11.552;2022-11-13T03:14:13;37.13;;;27.70;;
68812;SDS011;55808;48.112;11.552;2022-11-13T03:16:39;42.83;;;29.90;;
68812;SDS011;55808;48.112;11.552;2022-11-13T03:19:04;32.77;;;27.97;;
68812;SDS011;55808;48.112;11.552;2022-11-13T03:21:30;33.70;;;27.53;;
68812;SDS011;55808;48.112;11.552;2022-11-13T03:23:56;45.23;;;29.07;;
68812;SDS011;55808;48.112;11.552;2022-11-13T03:26:22;36.40;;;27.57;;
68812;SDS011;55808;48.112;11.552;2022-11-13T03:28:48;35.17;;;27.50;;
68812;SDS011;55808;48.112;11.552;2022-11-13T03:31:14;37.70;;;26.83;;
68812;SDS011;55808;48.112;11.552;2022-11-13T03:33:39;50.00;;;27.20;;
68812;SDS011;55808;48.112;11.552;2022-11-13T03:36:05;30.70;;;25.50;;
68812;SDS011;55808;48.112;11.552;2022-11-13T03:38:31;29.10;;;26.30;;
68812;SDS011;55808;48.112;11.552;2022-11-13T03:40:57;39.55;;;27.00;;
68812;SDS011;55808;48.112;11.552;2022-11-13T03:43:23;29.83;;;26.40;;
68812;SDS011;55808;48.112;11.552;2022-11-13T03:45:49;40.50;;;27.30;;
68812;SDS011;55808;48.112;11.552;2022-11-13T03:48:15;50.25;;;28.48;;
68812;SDS011;55808;48.112;11.552;2022-11-13T03:50:41;31.90;;;26.57;;
68812;SDS011;55808;48.112;11.552;2022-11-13T03:53:08;43.40;;;26.30;;
68812;SDS011;55808;48.112;11.552;2022-11-13T03:55:34;34.93;;;25.20;;
68812;SDS011;55808;48.112;11.552;2022-11-13T03:58:00;25.50;;;22.97;;
68812;SDS011;55808;48.112;11.552;2022-11-13T04:00:25;50.53;;;29.00;;
68812;SDS011;55808;48.112;11.552;2022-11-13T04:02:51;27.53;;;24.73;;
68812;SDS011;55808;48.112;11.552;2022-11-13T04:05:17;37.93;;;26.40;;
68812;SDS011;55808;48.112;11.552;2022-11-13T04:07:42;28.83;;;24.83;;
68812;SDS011;55808;48.112;11.552;2022-11-13T04:10:08;25.97;;;23.27;;
68812;SDS011;55808;48.112;11.552;2022-11-13T04:12:34;26.07;;;23.67;;
68812;SDS011;55808;48.112;11.552;2022-11-13T04:14:59;26.33;;;23.50;;
68812;SDS011;55808;48.112;11.552;2022-11-13T04:17:25;24.50;;;22.63;;
68812;SDS011;55808;48.112;11.552;2022-11-13T04:19:51;26.93;;;24.33;;
68812;SDS011;55808;48.112;11.552;2022-11-13T04:22:16;27.53;;;23.60;;
68812;SDS011;55808;48.112;11.552;2022-11-13T04:24:42;26.77;;;24.27;;
68812;SDS011;55808;48.112;11.552;2022-11-13T04:27:07;28.83;;;24.47;;
68812;SDS011;55808;48.112;11.552;2022-11-13T04:29:33;24.67;;;22.83;;
68812;SDS011;55808;48.112;11.552;2022-11-13T04:31:58;26.90;;;24.23;;
68812;SDS011;55808;48.112;11.552;2022-11-13T04:34:24;25.80;;;23.67;;
68812;SDS011;55808;48.112;11.552;2022-11-13T04:36:50;28.03;;;24.17;;
68812;SDS011;55808;48.112;11.552;2022-11-13T04:39:16;25.83;;;23.13;;
68812;SDS011;55808;48.112;11.552;2022-11-13T04:41:41;30.03;;;24.90;;
68812;SDS011;55808;48.112;11.552;2022-11-13T04:44:26;26.10;;;23.88;;
68812;SDS011;55808;48.112;11.552;2022-11-13T04:46:51;25.53;;;23.13;;
68812;SDS011;55808;48.112;11.552;2022-11-13T04:49:18;26.87;;;23.60;;
68812;SDS011;55808;48.112;11.552;2022-11-13T04:51:44;27.58;;;24.90;;
68812;SDS011;55808;48.112;11.552;2022-11-13T04:54:09;24.57;;;22.80;;
68812;SDS011;55808;48.112;11.552;2022-11-13T04:56:35;32.23;;;25.90;;
68812;SDS011;55808;48.112;11.552;2022-11-13T04:59:00;26.93;;;24.43;;
68812;SDS011;55808;48.112;11.552;2022-11-13T05:01:26;24.23;;;21.87;;
68812;SDS011;55808;48.112;11.552;2022-11-13T05:03:51;30.30;;;23.00;;
68812;SDS011;55808;48.112;11.552;2022-11-13T05:06:17;26.37;;;21.43;;
68812;SDS011;55808;48.112;11.552;2022-11-13T05:08:43;24.83;;;22.23;;
68812;SDS011;55808;48.112;11.552;2022-11-13T05:11:08;21.80;;;19.90;;
68812;SDS011;55808;48.112;11.552;2022-11-13T05:13:34;23.43;;;21.83;;
68812;SDS011;55808;48.112;11.552;2022-11-13T05:16:05;26.77;;;24.10;;
68812;SDS011;55808;48.112;11.552;2022-11-13T05:18:33;25.52;;;23.60;;
68812;SDS011;55808;48.112;11.552;2022-11-13T05:21:00;25.65;;;23.65;;
68812;SDS011;55808;48.112;11.552;2022-11-13T05:23:26;25.55;;;23.65;;
68812;SDS011;55808;48.112;11.552;2022-11-13T05:25:52;28.50;;;24.00;;
68812;SDS011;55808;48.112;11.552;2022-11-13T05:28:24;27.10;;;25.00;;
68812;SDS011;55808;48.112;11.552;2022-11-13T05:30:50;29.93;;;25.00;;
68812;SDS011;55808;48.112;11.552;2022-11-13T05:33:16;30.77;;;23.63;;
68812;SDS011;55808;48.112;11.552;2022-11-13T05:35:41;28.43;;;23.87;;
68812;SDS011;55808;48.112;11.552;2022-11-13T05:38:07;26.03;;;23.70;;
68812;SDS011;55808;48.112;11.552;2022-11-13T05:40:32;27.67;;;25.60;;
68812;SDS011;55808;48.112;11.552;2022-11-13T05:42:58;25.43;;;23.40;;
68812;SDS011;55808;48.112;11.552;2022-11-13T05:45:23;25.70;;;23.70;;
68812;SDS011;55808;48.112;11.552;2022-11-13T05:47:49;27.13;;;24.23;;
68812;SDS011;55808;48.112;11.552;2022-11-13T05:50:15;27.83;;;24.40;;
68812;SDS011;55808;48.112;11.552;2022-11-13T05:52:40;24.47;;;22.60;;
68812;SDS011;55808;48.112;11.552;2022-11-13T05:55:06;23.73;;;22.00;;
68812;SDS011;55808;48.112;11.552;2022-11-13T05:57:32;24.30;;;22.80;;
68812;SDS011;55808;48.112;11.552;2022-11-13T05:59:58;24.53;;;22.70;;
68812;SDS011;55808;48.112;11.552;2022-11-13T06:02:23;37.60;;;24.90;;
68812;SDS011;55808;48.112;11.552;2022-11-13T06:04:49;25.83;;;23.13;;
68812;SDS011;55808;48.112;11.552;2022-11-13T06:07:15;29.10;;;24.87;;
68812;SDS011;55808;48.112;11.552;2022-11-13T06:09:40;40.00;;;24.30;;
68812;SDS011;55808;48.112;11.552;2022-11-13T06:12:06;37.00;;;25.80;;
68812;SDS011;55808;48.112;11.552;2022-11-13T06:14:32;26.67;;;24.10;;
68812;SDS011;55808;48.112;11.552;2022-11-13T06:16:57;26.17;;;23.83;;
68812;SDS011;55808;48.112;11.552;2022-11-13T06:19:23;27.53;;;24.47;;
68812;SDS011;55808;48.112;11.552;2022-11-13T06:21:48;46.90;;;25.53;;
68812;SDS011;55808;48.112;11.552;2022-11-13T06:24:14;30.23;;;24.20;;
68812;SDS011;55808;48.112;11.552;2022-11-13T06:26:40;37.17;;;27.17;;
68812;SDS011;55808;48.112;11.552;2022-11-13T06:29:06;24.57;;;22.07;;
68812;SDS011;55808;48.112;11.552;2022-11-13T06:31:34;24.35;;;22.10;;
68812;SDS011;55808;48.112;11.552;2022-11-13T06:34:01;33.85;;;25.52;;
68812;SDS011;55808;48.112;11.552;2022-11-13T06:36:28;35.45;;;24.65;;
68812;SDS011;55808;48.112;11.552;2022-11-13T06:38:56;25.33;;;22.85;;
68812;SDS011;55808;48.112;11.552;2022-11-13T06:41:24;27.00;;;23.10;;
68812;SDS011;55808;48.112;11.552;2022-11-13T06:43:55;25.45;;;23.15;;
68812;SDS011;55808;48.112;11.552;2022-11-13T06:46:22;36.10;;;24.45;;
68812;SDS011;55808;48.112;11.552;2022-11-13T06:48:49;37.53;;;26.23;;
68812;SDS011;55808;48.112;11.552;2022-11-13T06:51:17;30.70;;;23.03;;
68812;SDS011;55808;48.112;11.552;2022-11-13T06:53:47;30.20;;;22.33;;
68812;SDS011;55808;48.112;11.552;2022-11-13T06:56:13;41.05;;;24.85;;
68812;SDS011;55808;48.112;11.552;2022-11-13T06:58:40;30.17;;;22.33;;
68812;SDS011;55808;48.112;11.552;2022-11-13T07:01:11;24.67;;;22.40;;
68812;SDS011;55808;48.112;11.552;2022-11-13T07:03:42;40.70;;;23.25;;
68812;SDS011;55808;48.112;11.552;2022-11-13T07:06:09;26.80;;;22.30;;
68812;SDS011;55808;48.112;11.552;2022-11-13T07:08:43;33.58;;;19.70;;
68812;SDS011;55808;48.112;11.552;2022-11-13T07:11:10;21.33;;;18.50;;
68812;SDS011;55808;48.112;11.552;2022-11-13T07:13:37;34.13;;;18.95;;
68812;SDS011;55808;48.112;11.552;2022-11-13T07:16:04;23.38;;;17.15;;
68812;SDS011;55808;48.112;11.552;2022-11-13T07:18:31;18.88;;;16.60;;
68812;SDS011;55808;48.112;11.552;2022-11-13T07:20:57;19.55;;;16.75;;
68812;SDS011;55808;48.112;11.552;2022-11-13T07:23:27;20.00;;;16.90;;
68812;SDS011;55808;48.112;11.552;2022-11-13T07:25:53;28.80;;;18.60;;
68812;SDS011;55808;48.112;11.552;2022-11-13T07:28:21;23.63;;;17.42;;
68812;SDS011;55808;48.112;11.552;2022-11-13T07:30:47;29.60;;;19.00;;
68812;SDS011;55808;48.112;11.552;2022-11-13T07:33:13;18.93;;;16.73;;
68812;SDS011;55808;48.112;11.552;2022-11-13T07:35:38;19.43;;;17.03;;
68812;SDS011;55808;48.112;11.552;2022-11-13T07:38:04;16.92;;;15.30;;
68812;SDS011;55808;48.112;11.552;2022-11-13T07:40:30;19.37;;;17.23;;
68812;SDS011;55808;48.112;11.552;2022-11-13T07:42:59;22.00;;;17.20;;
68812;SDS011;55808;48.112;11.552;2022-11-13T07:45:26;20.20;;;17.98;;
68812;SDS011;55808;48.112;11.552;2022-11-13T07:47:59;23.20;;;17.63;;
68812;SDS011;55808;48.112;11.552;2022-11-13T07:50:26;24.02;;;18.02;;
68812;SDS011;55808;48.112;11.552;2022-11-13T07:52:56;20.60;;;16.98;;
68812;SDS011;55808;48.112;11.552;2022-11-13T07:55:22;28.45;;;19.02;;
68812;SDS011;55808;48.112;11.552;2022-11-13T07:57:48;25.23;;;18.90;;
68812;SDS011;55808;48.112;11.552;2022-11-13T08:00:14;25.23;;;18.83;;
68812;SDS011;55808;48.112;11.552;2022-11-13T08:02:40;36.00;;;19.55;;
68812;SDS011;55808;48.112;11.552;2022-11-13T08:05:06;26.97;;;18.37;;
68812;SDS011;55808;48.112;11.552;2022-11-13T08:07:32;22.58;;;17.17;;
68812;SDS011;55808;48.112;11.552;2022-11-13T08:09:58;21.57;;;17.10;;
68812;SDS011;55808;48.112;11.552;2022-11-13T08:12:23;18.93;;;16.70;;
68812;SDS011;55808;48.112;11.552;2022-11-13T08:14:49;25.23;;;17.97;;
68812;SDS011;55808;48.112;11.552;2022-11-13T08:17:14;27.07;;;19.00;;
68812;SDS011;55808;48.112;11.552;2022-11-13T08:19:40;26.80;;;19.10;;
68812;SDS011;55808;48.112;11.552;2022-11-13T08:22:06;37.27;;;20.00;;
68812;SDS011;55808;48.112;11.552;2022-11-13T08:24:31;18.67;;;16.90;;
68812;SDS011;55808;48.112;11.552;2022-11-13T08:26:57;21.63;;;17.97;;
68812;SDS011;55808;48.112;11.552;2022-11-13T08:29:23;39.23;;;20.33;;
68812;SDS011;55808;48.112;11.552;2022-11-13T08:31:48;30.60;;;19.00;;
68812;SDS011;55808;48.112;11.552;2022-11-13T08:34:14;44.60;;;21.37;;
68812;SDS011;55808;48.112;11.552;2022-11-13T08:36:40;20.47;;;18.47;;
68812;SDS011;55808;48.112;11.552;2022-11-13T08:39:05;32.60;;;19.90;;
68812;SDS011;55808;48.112;11.552;2022-11-13T08:41:32;27.75;;;19.40;;
68812;SDS011;55808;48.112;11.552;2022-11-13T08:43:58;21.33;;;19.27;;
68812;SDS011;55808;48.112;11.552;2022-11-13T08:46:23;24.67;;;20.00;;
68812;SDS011;55808;48.112;11.552;2022-11-13T08:48:49;25.33;;;19.87;;
68812;SDS011;55808;48.112;11.552;2022-11-13T08:51:15;21.60;;;18.83;;
68812;SDS011;55808;48.112;11.552;2022-11-13T08:53:40;25.43;;;19.33;;
68812;SDS011;55808;48.112;11.552;2022-11-13T08:56:06;21.77;;;19.67;;
68812;SDS011;55808;48.112;11.552;2022-11-13T08:58:31;28.10;;;21.20;;
68812;SDS011;55808;48.112;11.552;2022-11-13T09:01:01;36.40;;;22.03;;
68812;SDS011;55808;48.112;11.552;2022-11-13T09:03:27;24.92;;;21.75;;
68812;SDS011;55808;48.112;11.552;2022-11-13T09:05:53;34.20;;;21.23;;
68812;SDS011;55808;48.112;11.552;2022-11-13T09:08:18;29.27;;;21.00;;
68812;SDS011;55808;48.112;11.552;2022-11-13T09:10:46;33.03;;;23.03;;
68812;SDS011;55808;48.112;11.552;2022-11-13T09:13:16;23.85;;;21.20;;
68812;SDS011;55808;48.112;11.552;2022-11-13T09:15:43;34.75;;;23.63;;
68812;SDS011;55808;48.112;11.552;2022-11-13T09:18:10;23.83;;;21.48;;
68812;SDS011;55808;48.112;11.552;2022-11-13T09:20:36;31.10;;;22.27;;
68812;SDS011;55808;48.112;11.552;2022-11-13T09:23:04;29.42;;;22.13;;
68812;SDS011;55808;48.112;11.552;2022-11-13T09:25:32;24.90;;;22.33;;
68812;SDS011;55808;48.112;11.552;2022-11-13T09:28:00;33.20;;;23.05;;
68812;SDS011;55808;48.112;11.552;2022-11-13T09:30:27;24.92;;;21.33;;
68812;SDS011;55808;48.112;11.552;2022-11-13T09:32:54;36.15;;;23.98;;
68812;SDS011;55808;48.112;11.552;2022-11-13T09:35:22;24.17;;;21.45;;
68812;SDS011;55808;48.112;11.552;2022-11-13T09:38:10;27.23;;;20.90;;
68812;SDS011;55808;48.112;11.552;2022-11-13T09:41:20;23.20;;;19.90;;
68812;SDS011;55808;48.112;11.552;2022-11-13T09:49:20;22.92;;;20.55;;
68812;SDS011;55808;48.112;11.552;2022-11-13T09:51:50;24.05;;;19.95;;
68812;SDS011;55808;48.112;11.552;2022-11-13T09:54:18;67.97;;;27.52;;
68812;SDS011;55808;48.112;11.552;2022-11-13T10:07:20;27.10;;;20.38;;
68812;SDS011;55808;48.112;11.552;2022-11-13T10:10:03;24.40;;;21.95;;
68812;SDS011;55808;48.112;11.552;2022-11-13T10:12:48;37.78;;;22.67;;
68812;SDS011;55808;48.112;11.552;2022-11-13T10:15:18;39.38;;;23.35;;
68812;SDS011;55808;48.112;11.552;2022-11-13T10:25:45;40.70;;;24.40;;
68812;SDS011;55808;48.112;11.552;2022-11-13T10:28:18;22.88;;;20.80;;
68812;SDS011;55808;48.112;11.552;2022-11-13T10:30:47;23.55;;;21.17;;
68812;SDS011;55808;48.112;11.552;2022-11-13T10:33:16;24.87;;;22.20;;
68812;SDS011;55808;48.112;11.552;2022-11-13T10:35:55;25.77;;;23.17;;
68812;SDS011;55808;48.112;11.552;2022-11-13T10:41:17;26.10;;;22.75;;
68812;SDS011;55808;48.112;11.552;2022-11-13T10:43:51;27.33;;;23.07;;
68812;SDS011;55808;48.112;11.552;2022-11-13T10:46:19;26.30;;;23.58;;
68812;SDS011;55808;48.112;11.552;2022-11-13T10:48:48;25.88;;;23.00;;
68812;SDS011;55808;48.112;11.552;2022-11-13T10:51:21;26.10;;;24.10;;
68812;SDS011;55808;48.112;11.552;2022-11-13T10:53:54;25.53;;;23.30;;
68812;SDS011;55808;48.112;11.552;2022-11-13T10:56:32;26.87;;;24.47;;
68812;SDS011;55808;48.112;11.552;2022-11-13T10:59:03;29.97;;;24.73;;
68812;SDS011;55808;48.112;11.552;2022-11-13T11:01:38;26.03;;;23.63;;
68812;SDS011;55808;48.112;11.552;2022-11-13T11:04:23;25.73;;;23.30;;
68812;SDS011;55808;48.112;11.552;2022-11-13T11:06:51;26.50;;;24.10;;
68812;SDS011;55808;48.112;11.552;2022-11-13T11:09:22;25.90;;;23.23;;
68812;SDS011;55808;48.112;11.552;2022-11-13T11:17:36;25.93;;;23.90;;
68812;SDS011;55808;48.112;11.552;2022-11-13T11:22:37;26.67;;;24.43;;
68812;SDS011;55808;48.112;11.552;2022-11-13T11:25:13;34.73;;;27.87;;
68812;SDS011;55808;48.112;11.552;2022-11-13T11:27:55;30.00;;;28.40;;
68812;SDS011;55808;48.112;11.552;2022-11-13T11:30:31;37.50;;;34.20;;
68812;SDS011;55808;48.112;11.552;2022-11-13T11:33:16;38.10;;;35.60;;
68812;SDS011;55808;48.112;11.552;2022-11-13T11:36:07;39.67;;;37.80;;
68812;SDS011;55808;48.112;11.552;2022-11-13T11:38:40;42.10;;;39.80;;
68812;SDS011;55808;48.112;11.552;2022-11-13T11:41:18;40.73;;;38.73;;
68812;SDS011;55808;48.112;11.552;2022-11-13T11:44:37;43.30;;;41.20;;
68812;SDS011;55808;48.112;11.552;2022-11-13T11:46:50;44.87;;;42.67;;
68812;SDS011;55808;48.112;11.552;2022-11-13T11:49:16;47.10;;;44.70;;
68812;SDS011;55808;48.112;11.552;2022-11-13T11:51:57;44.17;;;42.27;;
68812;SDS011;55808;48.112;11.552;2022-11-13T12:02:52;51.50;;;47.77;;
68812;SDS011;55808;48.112;11.552;2022-11-13T12:08:40;50.27;;;47.70;;
68812;SDS011;55808;48.112;11.552;2022-11-13T12:11:28;49.77;;;47.10;;
68812;SDS011;55808;48.112;11.552;2022-11-13T12:22:06;52.77;;;49.87;;
68812;SDS011;55808;48.112;11.552;2022-11-13T12:24:41;55.63;;;52.37;;
68812;SDS011;55808;48.112;11.552;2022-11-13T12:27:39;52.77;;;49.97;;
68812;SDS011;55808;48.112;11.552;2022-11-13T12:30:14;54.47;;;51.60;;
68812;SDS011;55808;48.112;11.552;2022-11-13T12:35:32;54.37;;;51.57;;
68812;SDS011;55808;48.112;11.552;2022-11-13T12:46:18;62.00;;;57.20;;
68812;SDS011;55808;48.112;11.552;2022-11-13T12:48:45;61.67;;;57.90;;
68812;SDS011;55808;48.112;11.552;2022-11-13T12:51:13;62.20;;;58.77;;
68812;SDS011;55808;48.112;11.552;2022-11-13T12:53:47;64.87;;;61.30;;
68812;SDS011;55808;48.112;11.552;2022-11-13T12:56:16;75.37;;;70.97;;
68812;SDS011;55808;48.112;11.552;2022-11-13T13:01:45;93.70;;;86.20;;
68812;SDS011;55808;48.112;11.552;2022-11-13T13:07:42;251.63;;;173.73;;
68812;SDS011;55808;48.112;11.552;2022-11-13T13:15:45;317.23;;;214.13;;
68812;SDS011;55808;48.112;11.552;2022-11-13T13:23:40;260.23;;;159.37;;
68812;SDS011;55808;48.112;11.552;2022-11-13T13:28:49;291.30;;;170.53;;
68812;SDS011;55808;48.112;11.552;2022-11-13T13:46:04;283.33;;;151.17;;
68812;SDS011;55808;48.112;11.552;2022-11-13T13:48:44;279.53;;;166.83;;
68812;SDS011;55808;48.112;11.552;2022-11-13T13:53:40;287.80;;;164.23;;
68812;SDS011;55808;48.112;11.552;2022-11-13T13:56:08;300.43;;;166.17;;
68812;SDS011;55808;48.112;11.552;2022-11-13T13:58:36;289.57;;;163.63;;
68812;SDS011;55808;48.112;11.552;2022-11-13T14:01:04;328.47;;;174.47;;
68812;SDS011;55808;48.112;11.552;2022-11-13T14:03:36;342.00;;;180.60;;
68812;SDS011;55808;48.112;11.552;2022-11-13T14:06:34;338.37;;;178.87;;
68812;SDS011;55808;48.112;11.552;2022-11-13T14:08:53;375.73;;;201.30;;
68812;SDS011;55808;48.112;11.552;2022-11-13T14:11:25;398.20;;;212.67;;
68812;SDS011;55808;48.112;11.552;2022-11-13T14:13:53;385.37;;;172.40;;
68812;SDS011;55808;48.112;11.552;2022-11-13T14:16:20;384.87;;;176.37;;
68812;SDS011;55808;48.112;11.552;2022-11-13T14:18:45;381.87;;;173.37;;
68812;SDS011;55808;48.112;11.552;2022-11-13T14:23:46;386.93;;;165.30;;
68812;SDS011;55808;48.112;11.552;2022-11-13T14:26:14;389.63;;;174.00;;
68812;SDS011;55808;48.112;11.552;2022-11-13T14:31:14;367.17;;;156.97;;
68812;SDS011;55808;48.112;11.552;2022-11-13T14:33:41;410.13;;;167.67;;
68812;SDS011;55808;48.112;11.552;2022-11-13T14:36:09;394.20;;;169.67;;
68812;SDS011;55808;48.112;11.552;2022-11-13T14:38:38;315.53;;;164.40;;
68812;SDS011;55808;48.112;11.552;2022-11-13T14:41:31;310.43;;;155.87;;
68812;SDS011;55808;48.112;11.552;2022-11-13T14:43:53;310.03;;;158.37;;
68812;SDS011;55808;48.112;11.552;2022-11-13T14:46:29;300.33;;;144.17;;
68812;SDS011;55808;48.112;11.552;2022-11-13T14:49:00;300.67;;;143.47;;
68812;SDS011;55808;48.112;11.552;2022-11-13T14:51:27;291.40;;;143.80;;
68812;SDS011;55808;48.112;11.552;2022-11-13T14:53:55;275.90;;;140.20;;
68812;SDS011;55808;48.112;11.552;2022-11-13T14:56:31;277.23;;;134.27;;
68812;SDS011;55808;48.112;11.552;2022-11-13T14:59:12;260.80;;;128.63;;
68812;SDS011;55808;48.112;11.552;2022-11-13T15:01:39;260.17;;;131.47;;
68812;SDS011;55808;48.112;11.552;2022-11-13T15:04:05;263.90;;;130.17;;
68812;SDS011;55808;48.112;11.552;2022-11-13T15:06:33;251.73;;;127.43;;
68812;SDS011;55808;48.112;11.552;2022-11-13T15:09:02;242.37;;;125.30;;
68812;SDS011;55808;48.112;11.552;2022-11-13T15:11:29;232.13;;;122.57;;
68812;SDS011;55808;48.112;11.552;2022-11-13T15:13:55;208.07;;;114.50;;
68812;SDS011;55808;48.112;11.552;2022-11-13T15:16:25;189.53;;;110.63;;
68812;SDS011;55808;48.112;11.552;2022-11-13T15:21:27;203.53;;;113.60;;
68812;SDS011;55808;48.112;11.552;2022-11-13T15:23:53;191.93;;;111.80;;
68812;SDS011;55808;48.112;11.552;2022-11-13T15:26:19;200.93;;;110.87;;
68812;SDS011;55808;48.112;11.552;2022-11-13T15:28:44;194.90;;;111.30;;
68812;SDS011;55808;48.112;11.552;2022-11-13T15:31:20;192.67;;;110.50;;
68812;SDS011;55808;48.112;11.552;2022-11-13T15:33:49;194.77;;;110.20;;
68812;SDS011;55808;48.112;11.552;2022-11-13T15:36:15;214.50;;;114.00;;
68812;SDS011;55808;48.112;11.552;2022-11-13T15:38:41;190.77;;;108.90;;
68812;SDS011;55808;48.112;11.552;2022-11-13T15:41:11;208.53;;;113.67;;
68812;SDS011;55808;48.112;11.552;2022-11-13T15:43:42;215.97;;;115.67;;
68812;SDS011;55808;48.112;11.552;2022-11-13T15:46:20;212.95;;;114.13;;
68812;SDS011;55808;48.112;11.552;2022-11-13T15:48:47;218.43;;;113.27;;
68812;SDS011;55808;48.112;11.552;2022-11-13T15:54:09;207.80;;;114.22;;
68812;SDS011;55808;48.112;11.552;2022-11-13T15:56:55;218.68;;;112.32;;
68812;SDS011;55808;48.112;11.552;2022-11-13T15:59:21;237.93;;;118.57;;
68812;SDS011;55808;48.112;11.552;2022-11-13T16:01:46;233.40;;;115.00;;
68812;SDS011;55808;48.112;11.552;2022-11-13T16:04:12;215.40;;;113.43;;
68812;SDS011;55808;48.112;11.552;2022-11-13T16:06:40;225.55;;;111.88;;
68812;SDS011;55808;48.112;11.552;2022-11-13T16:09:08;219.10;;;113.60;;
68812;SDS011;55808;48.112;11.552;2022-11-13T16:11:37;224.20;;;113.72;;